Time;durP1;ratioP1;P1;durP2;ratioP2;P2;SDS_P1;SDS_P2;PMS_P1;PMS_P2;Temp;Humidity;BMP_temperature;BMP_pressure;BME280_temperature;BME280_humidity;BME280_pressure;Samples;Min_cycle;Max_cycle;Signal;HPM_P1;HPM_P2
2022/04/26 03:37:13;;;;;;;23.38;18.40;;;6.30;99.90;;;;;;5042917;28;20036;-61
2022/04/26 03:39:39;;;;;;;27.23;17.23;;;6.30;99.90;;;;;;5035497;28;20033;-60
2022/04/26 03:42:06;;;;;;;30.98;19.60;;;6.20;99.90;;;;;;5039757;28;20033;-61
2022/04/26 03:44:31;;;;;;;27.38;18.13;;;6.20;99.90;;;;;;5043208;28;20116;-61
2022/04/26 03:46:57;;;;;;;32.20;19.13;;;6.20;99.90;;;;;;5038546;28;20117;-60
2022/04/26 03:49:23;;;;;;;30.40;19.90;;;6.20;99.90;;;;;;5039832;28;20447;-61
2022/04/26 03:51:52;;;;;;;30.35;19.05;;;6.20;99.90;;;;;;5040141;28;20032;-61
2022/04/26 03:54:18;;;;;;;32.08;19.55;;;6.20;99.90;;;;;;5038695;28;20500;-62
2022/04/26 03:56:44;;;;;;;31.25;19.70;;;6.20;99.90;;;;;;5038152;28;20086;-62
2022/04/26 03:59:10;;;;;;;24.20;18.15;;;6.20;99.90;;;;;;5039272;28;20037;-61
2022/04/26 04:01:35;;;;;;;25.30;18.00;;;6.30;99.90;;;;;;5040365;28;20423;-61
2022/04/26 04:04:01;;;;;;;27.42;16.90;;;6.30;99.90;;;;;;5038541;28;20049;-61
2022/04/26 04:06:27;;;;;;;31.85;19.42;;;6.30;99.90;;;;;;5042372;28;20037;-61
2022/04/26 04:08:52;;;;;;;29.02;19.10;;;6.30;99.90;;;;;;5022871;28;20026;-61
2022/04/26 04:11:18;;;;;;;30.73;19.05;;;6.40;99.90;;;;;;5039210;28;20029;-60
2022/04/26 04:13:43;;;;;;;27.85;18.77;;;6.40;99.90;;;;;;5035679;28;20028;-61
2022/04/26 04:16:09;;;;;;;20.95;16.55;;;6.40;99.90;;;;;;5040653;28;20108;-61
2022/04/26 04:21:19;;;;;;;24.10;17.23;;;6.50;99.90;;;;;;5043482;28;20036;-61
2022/04/26 04:23:45;;;;;;;25.35;17.23;;;6.50;99.90;;;;;;5042141;28;20037;-60
2022/04/26 04:26:10;;;;;;;30.88;19.02;;;6.50;99.90;;;;;;5038409;28;20029;-61
2022/04/26 04:28:36;;;;;;;22.67;17.17;;;6.50;99.90;;;;;;5043157;28;20025;-62
2022/04/26 04:31:02;;;;;;;24.27;17.55;;;6.60;99.90;;;;;;5038749;28;20021;-60
2022/04/26 04:33:28;;;;;;;25.75;18.17;;;6.60;99.90;;;;;;5028227;28;20040;-61
2022/04/26 04:35:54;;;;;;;28.60;17.17;;;6.60;99.90;;;;;;5035653;28;20060;-61
2022/04/26 04:38:20;;;;;;;19.60;16.15;;;6.60;99.90;;;;;;5032492;28;20021;-61
2022/04/26 04:40:46;;;;;;;19.15;16.05;;;6.70;99.90;;;;;;5038522;28;20020;-60
2022/04/26 04:43:12;;;;;;;21.77;15.45;;;6.70;99.90;;;;;;5031908;28;20404;-60
2022/04/26 04:45:39;;;;;;;23.65;16.08;;;6.70;99.90;;;;;;5040863;28;20025;-60
2022/04/26 04:48:05;;;;;;;23.15;17.02;;;6.70;99.90;;;;;;5039022;28;20036;-61
2022/04/26 04:50:34;;;;;;;20.25;15.90;;;6.70;99.90;;;;;;5039947;28;20104;-60
2022/04/26 04:53:00;;;;;;;25.02;17.65;;;6.70;99.90;;;;;;5043578;28;20047;-61
2022/04/26 04:55:26;;;;;;;23.17;16.98;;;6.70;99.90;;;;;;5043618;28;20082;-61
2022/04/26 04:57:52;;;;;;;23.40;17.10;;;6.80;99.90;;;;;;5044892;28;20021;-60
2022/04/26 05:00:18;;;;;;;21.17;15.70;;;6.80;99.90;;;;;;5046048;28;20523;-61
2022/04/26 05:02:44;;;;;;;23.95;16.98;;;6.90;99.90;;;;;;5045003;28;20037;-61
2022/04/26 05:05:10;;;;;;;22.20;17.05;;;6.90;99.90;;;;;;5043943;28;20419;-61
2022/04/26 05:07:36;;;;;;;20.58;16.40;;;7.00;99.90;;;;;;5045430;28;20436;-61
2022/04/26 05:10:03;;;;;;;25.60;17.75;;;7.10;99.90;;;;;;5044612;28;20037;-61
2022/04/26 05:12:29;;;;;;;23.15;17.20;;;7.20;99.90;;;;;;5043241;28;20025;-61
2022/04/26 05:14:54;;;;;;;18.80;16.80;;;7.30;99.90;;;;;;5044747;28;20036;-61
2022/04/26 05:17:20;;;;;;;18.20;16.30;;;7.50;99.90;;;;;;5039407;28;20515;-61
2022/04/26 05:19:45;;;;;;;22.02;15.68;;;7.60;99.90;;;;;;5038070;28;20017;-61
2022/04/26 05:22:11;;;;;;;18.15;14.93;;;7.80;99.90;;;;;;5038981;28;20019;-60
2022/04/26 05:24:53;;;;;;;18.88;14.93;;;7.90;99.90;;;;;;5041782;28;20103;-61
2022/04/26 05:27:20;;;;;;;20.85;16.13;;;8.00;99.90;;;;;;5043902;28;20036;-61
2022/04/26 05:29:46;;;;;;;19.40;15.90;;;8.10;99.90;;;;;;5041964;28;20056;-60
2022/04/26 05:32:11;;;;;;;19.58;16.25;;;8.10;99.90;;;;;;5041587;28;20033;-61
2022/04/26 05:34:37;;;;;;;20.25;15.98;;;8.20;99.90;;;;;;5045019;28;20045;-61
2022/04/26 05:37:03;;;;;;;17.73;15.35;;;8.20;99.90;;;;;;5048104;28;20112;-60
2022/04/26 05:39:28;;;;;;;20.00;16.23;;;8.20;99.90;;;;;;5042905;28;20048;-61
2022/04/26 05:41:54;;;;;;;19.17;15.57;;;8.10;99.90;;;;;;5045142;28;20391;-61
2022/04/26 05:44:19;;;;;;;20.60;16.00;;;8.10;99.90;;;;;;5039968;28;20048;-61
2022/04/26 05:46:45;;;;;;;18.13;15.40;;;8.10;99.90;;;;;;5043080;28;20534;-60
2022/04/26 05:49:11;;;;;;;24.90;15.95;;;8.00;99.90;;;;;;5039517;28;20059;-60
2022/04/26 05:51:36;;;;;;;21.55;16.88;;;8.00;99.90;;;;;;5040334;28;20033;-61
2022/04/26 05:54:02;;;;;;;22.63;16.60;;;8.10;99.90;;;;;;5038466;28;20462;-60
2022/04/26 05:56:28;;;;;;;18.55;15.20;;;8.10;99.90;;;;;;5040831;28;20041;-60
2022/04/26 05:58:53;;;;;;;21.17;16.20;;;8.10;99.90;;;;;;5035226;28;20027;-61
2022/04/26 06:01:19;;;;;;;18.98;16.65;;;8.10;99.90;;;;;;5038688;28;20021;-60
2022/04/26 06:03:44;;;;;;;18.45;15.60;;;8.20;99.90;;;;;;5039867;28;20435;-60
2022/04/26 06:06:10;;;;;;;21.27;16.20;;;8.20;99.90;;;;;;5039780;28;20488;-61
2022/04/26 06:08:36;;;;;;;21.52;16.60;;;8.20;99.90;;;;;;5043768;28;20711;-60
2022/04/26 06:11:01;;;;;;;21.30;16.63;;;8.20;99.90;;;;;;5045581;28;20503;-60
2022/04/26 06:13:27;;;;;;;20.05;15.50;;;8.30;99.90;;;;;;5037961;28;20027;-60
2022/04/26 06:15:53;;;;;;;16.95;15.25;;;8.40;99.90;;;;;;5043890;28;20033;-60
2022/04/26 06:18:18;;;;;;;17.75;15.68;;;8.50;99.90;;;;;;5026591;28;20029;-61
2022/04/26 06:20:44;;;;;;;18.77;16.88;;;8.60;99.90;;;;;;5043780;28;20116;-62
2022/04/26 06:23:09;;;;;;;18.30;16.08;;;8.60;99.90;;;;;;5028286;28;20075;-61
2022/04/26 06:25:37;;;;;;;18.02;15.80;;;8.70;99.90;;;;;;5042327;28;20048;-61
2022/04/26 06:28:05;;;;;;;17.70;15.88;;;8.80;99.90;;;;;;5042053;28;20049;-60
2022/04/26 06:30:31;;;;;;;17.05;15.30;;;8.90;99.90;;;;;;5039949;28;20369;-60
2022/04/26 06:32:57;;;;;;;16.02;14.27;;;9.00;99.90;;;;;;5038089;28;20033;-61
2022/04/26 06:35:23;;;;;;;19.90;16.27;;;9.00;99.90;;;;;;5041281;28;20032;-60
2022/04/26 06:37:49;;;;;;;18.40;16.50;;;9.00;99.90;;;;;;5041793;28;20024;-61
2022/04/26 06:40:14;;;;;;;17.58;15.27;;;9.00;99.90;;;;;;5045001;28;20420;-60
2022/04/26 06:42:42;;;;;;;21.80;16.95;;;8.90;99.90;;;;;;5042520;28;20038;-60
2022/04/26 06:45:08;;;;;;;20.30;16.92;;;8.90;99.90;;;;;;5037091;28;20041;-60
2022/04/26 06:47:34;;;;;;;18.02;16.10;;;8.90;99.90;;;;;;5041731;28;20030;-61
2022/04/26 06:49:59;;;;;;;21.00;18.05;;;8.80;99.90;;;;;;5040400;28;20026;-60
2022/04/26 06:52:25;;;;;;;19.42;17.33;;;8.70;99.90;;;;;;5041550;28;20023;-60
2022/04/26 06:54:51;;;;;;;20.15;17.95;;;8.70;99.90;;;;;;5037513;28;20052;-60
2022/04/26 06:57:17;;;;;;;24.15;18.23;;;8.60;99.90;;;;;;5036084;28;20033;-60
2022/04/26 06:59:43;;;;;;;26.40;19.50;;;8.50;99.90;;;;;;5042414;28;20492;-60
2022/04/26 07:02:08;;;;;;;22.55;18.50;;;8.40;99.90;;;;;;5039225;28;20037;-60
2022/04/26 07:04:34;;;;;;;25.42;19.13;;;8.30;99.90;;;;;;5043056;28;20049;-61
2022/04/26 07:07:00;;;;;;;30.60;19.75;;;8.30;99.90;;;;;;5039304;28;20033;-60
2022/04/26 07:09:25;;;;;;;23.27;18.98;;;8.20;99.90;;;;;;5037659;28;20037;-60
2022/04/26 07:11:52;;;;;;;29.25;20.33;;;8.20;99.90;;;;;;5040532;28;20034;-60
2022/04/26 07:14:18;;;;;;;26.88;19.40;;;8.20;99.90;;;;;;5041028;28;20959;-60
2022/04/26 07:16:49;;;;;;;26.92;20.00;;;8.20;99.90;;;;;;5040129;28;20068;-60
2022/04/26 07:19:15;;;;;;;32.40;21.02;;;8.20;99.90;;;;;;5038022;28;20087;-60
2022/04/26 07:21:44;;;;;;;31.02;20.10;;;8.10;99.90;;;;;;5036567;28;20573;-59
2022/04/26 07:24:12;;;;;;;27.33;20.10;;;8.10;99.90;;;;;;5025212;28;20119;-59
2022/04/26 07:26:37;;;;;;;28.58;20.30;;;8.10;99.90;;;;;;5022821;28;20029;-60
2022/04/26 07:29:04;;;;;;;29.75;22.08;;;8.10;99.90;;;;;;5043019;28;20044;-61
2022/04/26 07:31:30;;;;;;;29.52;20.15;;;8.00;99.90;;;;;;5039939;28;20018;-60
2022/04/26 07:36:39;;;;;;;30.08;21.08;;;7.90;99.90;;;;;;5037524;28;20206;-60
2022/04/26 07:39:06;;;;;;;33.17;21.33;;;7.90;99.90;;;;;;5035452;28;20658;-60
2022/04/26 07:41:32;;;;;;;31.60;21.27;;;7.90;99.90;;;;;;5035915;28;20087;-60
2022/04/26 07:43:58;;;;;;;35.47;21.33;;;7.90;99.90;;;;;;5040383;28;20051;-59
2022/04/26 07:46:24;;;;;;;33.42;22.63;;;7.90;99.90;;;;;;5035099;28;20021;-60
2022/04/26 07:48:50;;;;;;;35.97;23.58;;;7.90;99.90;;;;;;5036666;28;20039;-60
2022/04/26 07:51:18;;;;;;;44.00;25.95;;;7.90;99.90;;;;;;5039388;28;20399;-60
2022/04/26 07:53:44;;;;;;;32.95;23.60;;;8.00;99.90;;;;;;5036810;28;20113;-60
2022/04/26 07:56:10;;;;;;;41.60;25.98;;;8.00;99.90;;;;;;5032231;28;20029;-60
2022/04/26 07:58:35;;;;;;;45.15;27.40;;;8.10;99.90;;;;;;5035386;28;20091;-60
2022/04/26 08:01:01;;;;;;;40.65;25.45;;;8.10;99.90;;;;;;5040435;28;20124;-60
2022/04/26 08:03:27;;;;;;;31.33;23.20;;;8.20;99.90;;;;;;5041233;28;20044;-60
2022/04/26 08:05:53;;;;;;;33.25;22.50;;;8.30;99.90;;;;;;5035574;28;20484;-59
2022/04/26 08:08:19;;;;;;;30.77;21.45;;;8.40;99.90;;;;;;5042061;28;20112;-59
2022/04/26 08:10:45;;;;;;;21.80;17.90;;;8.40;99.90;;;;;;5042427;28;20025;-59
2022/04/26 08:13:11;;;;;;;20.83;17.98;;;8.50;99.90;;;;;;5040040;28;20036;-59
2022/04/26 08:15:39;;;;;;;24.10;18.58;;;8.50;99.90;;;;;;5022268;28;20399;-60
2022/04/26 08:18:05;;;;;;;21.05;18.27;;;8.50;99.90;;;;;;5038739;28;20037;-59
2022/04/26 08:20:31;;;;;;;24.60;19.60;;;8.60;99.90;;;;;;5042618;28;20032;-60
2022/04/26 08:22:56;;;;;;;27.50;19.45;;;8.60;99.90;;;;;;5037636;28;20404;-59
2022/04/26 08:28:06;;;;;;;19.92;17.73;;;8.60;99.90;;;;;;5040808;28;20043;-60
2022/04/26 08:30:32;;;;;;;19.23;16.27;;;8.60;99.90;;;;;;5036561;28;20396;-60
2022/04/26 08:32:58;;;;;;;19.17;16.45;;;8.70;99.90;;;;;;5037256;28;20079;-60
2022/04/26 08:35:26;;;;;;;18.92;16.80;;;8.60;99.90;;;;;;5039497;28;20026;-60
2022/04/26 08:37:53;;;;;;;18.23;16.42;;;8.60;99.90;;;;;;5039317;28;20017;-60
2022/04/26 08:40:19;;;;;;;17.38;15.35;;;8.70;99.90;;;;;;5036660;28;20033;-59
2022/04/26 08:42:47;;;;;;;20.17;16.83;;;8.60;99.90;;;;;;5040861;28;20037;-60
2022/04/26 08:45:15;;;;;;;20.05;17.25;;;8.60;99.90;;;;;;5017804;28;20029;-60
2022/04/26 08:53:11;;;;;;;23.52;16.85;;;8.60;99.90;;;;;;5031061;28;20036;-60
2022/04/26 08:55:44;;;;;;;21.48;17.70;;;8.60;99.90;;;;;;5039600;28;20033;-63
2022/04/26 08:58:13;;;;;;;23.70;17.90;;;8.70;99.90;;;;;;5024384;28;20021;-60
2022/04/26 09:00:40;;;;;;;20.50;16.48;;;8.70;99.90;;;;;;5044734;28;20029;-59
2022/04/26 09:03:07;;;;;;;19.95;17.80;;;8.70;99.90;;;;;;5043839;28;20043;-59
2022/04/26 09:05:34;;;;;;;19.88;17.65;;;8.70;99.90;;;;;;5041055;28;20129;-60
2022/04/26 09:08:00;;;;;;;19.85;17.75;;;8.70;99.90;;;;;;5041084;28;20025;-59
2022/04/26 09:10:29;;;;;;;21.05;18.60;;;8.70;99.90;;;;;;5041011;28;20021;-59
2022/04/26 09:13:09;;;;;;;19.95;16.52;;;8.80;99.90;;;;;;5036762;28;20029;-59
2022/04/26 09:15:41;;;;;;;25.75;17.02;;;8.70;99.90;;;;;;5036597;28;20120;-60
2022/04/26 09:18:30;;;;;;;23.98;19.33;;;8.60;99.90;;;;;;5042524;28;20033;-60
2022/04/26 09:21:08;;;;;;;18.48;16.42;;;8.60;99.90;;;;;;5038335;28;20025;-59
2022/04/26 09:23:34;;;;;;;22.88;17.48;;;8.50;99.90;;;;;;5036515;28;20175;-60
2022/04/26 09:26:09;;;;;;;23.00;18.38;;;8.50;99.90;;;;;;5042508;28;20567;-60
2022/04/26 09:28:37;;;;;;;25.35;18.00;;;8.50;99.90;;;;;;5036086;28;20017;-60
2022/04/26 09:31:19;;;;;;;23.23;18.42;;;8.50;99.90;;;;;;5041021;28;20041;-60
2022/04/26 09:33:49;;;;;;;20.83;17.05;;;8.40;99.90;;;;;;5028860;28;20029;-60
2022/04/26 09:36:18;;;;;;;27.70;21.77;;;8.40;99.90;;;;;;5046744;28;20037;-59
2022/04/26 09:38:55;;;;;;;21.63;18.13;;;8.50;99.90;;;;;;5044345;28;20026;-60
2022/04/26 09:41:22;;;;;;;20.65;18.10;;;8.50;99.90;;;;;;5041617;28;20361;-59
2022/04/26 09:44:01;;;;;;;24.45;18.58;;;8.40;99.90;;;;;;5046639;28;20025;-60
2022/04/26 09:46:44;;;;;;;23.02;18.92;;;8.40;99.90;;;;;;5043471;28;20029;-59
2022/04/26 09:49:14;;;;;;;29.35;19.58;;;8.40;99.90;;;;;;5026794;28;20075;-60
2022/04/26 09:51:41;;;;;;;23.65;18.33;;;8.50;99.90;;;;;;5039592;28;20036;-60
2022/04/26 09:54:07;;;;;;;27.83;19.95;;;8.50;99.90;;;;;;5039058;28;20532;-60
2022/04/26 09:56:33;;;;;;;25.83;19.90;;;8.50;99.90;;;;;;5036638;28;20224;-59
2022/04/26 09:59:01;;;;;;;22.63;18.33;;;8.50;99.90;;;;;;5041968;28;20062;-60
2022/04/26 10:01:40;;;;;;;26.08;18.17;;;8.50;99.90;;;;;;5042510;28;20013;-60
2022/04/26 10:04:08;;;;;;;20.05;17.98;;;8.40;99.90;;;;;;5044397;28;20049;-59
2022/04/26 10:06:36;;;;;;;24.23;18.35;;;8.30;99.90;;;;;;5042926;28;20028;-59
2022/04/26 10:09:03;;;;;;;27.10;17.80;;;8.20;99.90;;;;;;5042356;28;20038;-59
2022/04/26 10:11:30;;;;;;;26.33;17.92;;;8.20;99.90;;;;;;5043099;28;20033;-60
2022/04/26 10:13:57;;;;;;;22.30;17.67;;;8.20;99.90;;;;;;5044665;28;20555;-60
2022/04/26 10:16:24;;;;;;;29.98;19.52;;;8.20;99.90;;;;;;5046176;28;20038;-59
2022/04/26 10:18:50;;;;;;;24.38;17.90;;;8.20;99.90;;;;;;5041477;28;20139;-60
2022/04/26 10:21:21;;;;;;;25.13;18.25;;;8.30;99.90;;;;;;5040156;28;20132;-60
2022/04/26 10:23:56;;;;;;;19.05;17.00;;;8.30;99.90;;;;;;5039822;28;20079;-60
2022/04/26 10:26:26;;;;;;;20.92;17.38;;;8.30;99.90;;;;;;5045236;28;20036;-60
2022/04/26 10:28:54;;;;;;;18.20;16.30;;;8.30;99.90;;;;;;5041499;28;20045;-60
2022/04/26 10:31:37;;;;;;;17.75;15.88;;;8.30;99.90;;;;;;5043652;28;20094;-60
2022/04/26 10:34:20;;;;;;;17.58;15.43;;;8.40;99.90;;;;;;5016891;28;20041;-60
2022/04/26 10:36:59;;;;;;;19.60;16.20;;;8.40;99.90;;;;;;5039342;28;20080;-59
2022/04/26 10:39:25;;;;;;;19.63;15.63;;;8.40;99.90;;;;;;5040871;28;20072;-60
2022/04/26 10:41:51;;;;;;;17.88;14.75;;;8.50;99.90;;;;;;5043760;28;20563;-60
2022/04/26 10:44:17;;;;;;;15.70;14.10;;;8.60;99.90;;;;;;5038189;28;20037;-60
2022/04/26 10:46:44;;;;;;;15.32;13.45;;;8.70;99.90;;;;;;5042335;28;20052;-61
2022/04/26 10:49:24;;;;;;;15.27;13.60;;;8.70;99.90;;;;;;5044104;28;20521;-60
2022/04/26 10:51:57;;;;;;;15.10;13.23;;;8.70;99.90;;;;;;5043173;28;20496;-60
2022/04/26 10:54:48;;;;;;;14.43;13.02;;;8.80;99.90;;;;;;5037656;28;20086;-60
2022/04/26 10:57:27;;;;;;;15.60;14.05;;;8.80;99.90;;;;;;5016390;28;20037;-60
2022/04/26 10:59:56;;;;;;;14.82;13.40;;;8.70;99.90;;;;;;5044177;28;20029;-60
2022/04/26 11:02:23;;;;;;;17.05;14.30;;;8.70;99.90;;;;;;5044760;28;20487;-60
2022/04/26 11:05:11;;;;;;;14.65;13.30;;;8.70;99.90;;;;;;5039172;28;20097;-60
2022/04/26 11:07:46;;;;;;;16.80;15.10;;;8.80;99.90;;;;;;5041351;28;20460;-61
2022/04/26 11:10:13;;;;;;;16.10;13.40;;;8.80;99.90;;;;;;5038140;28;20923;-61
2022/04/26 11:12:40;;;;;;;17.48;15.68;;;8.90;99.90;;;;;;5038866;28;20388;-60
2022/04/26 11:15:13;;;;;;;14.95;13.48;;;8.90;99.90;;;;;;5030953;28;20037;-60
2022/04/26 11:17:40;;;;;;;15.95;14.38;;;8.80;99.90;;;;;;5033612;28;20033;-59
2022/04/26 11:20:20;;;;;;;17.27;14.35;;;8.80;99.90;;;;;;5038989;28;20036;-59
2022/04/26 11:22:51;;;;;;;15.88;13.68;;;8.80;99.90;;;;;;5043356;28;20493;-59
2022/04/26 11:28:11;;;;;;;17.60;14.43;;;8.80;99.90;;;;;;5042409;28;20090;-60
2022/04/26 11:30:42;;;;;;;15.15;13.52;;;8.80;99.90;;;;;;5042773;28;20033;-61
2022/04/26 11:33:20;;;;;;;15.52;14.10;;;8.90;99.90;;;;;;5034894;28;20029;-59
2022/04/26 11:35:55;;;;;;;16.73;14.98;;;8.90;99.90;;;;;;5039869;28;20604;-60
2022/04/26 11:38:21;;;;;;;15.40;13.82;;;8.90;99.90;;;;;;5044884;28;20044;-60
2022/04/26 11:41:00;;;;;;;18.13;14.77;;;8.90;99.90;;;;;;5033210;28;20027;-60
2022/04/26 11:43:31;;;;;;;18.42;15.35;;;9.10;99.90;;;;;;5037305;28;20029;-60
2022/04/26 11:45:58;;;;;;;16.65;14.95;;;9.20;99.90;;;;;;5041403;28;20029;-60
2022/04/26 11:48:25;;;;;;;16.00;13.88;;;9.30;99.90;;;;;;5038790;28;20083;-60
2022/04/26 11:50:54;;;;;;;14.45;13.00;;;9.40;99.90;;;;;;5039328;28;20052;-61
2022/04/26 11:53:21;;;;;;;14.60;13.25;;;9.40;99.90;;;;;;5040282;28;20072;-60
2022/04/26 11:55:56;;;;;;;15.32;13.63;;;9.40;99.90;;;;;;5036063;28;20104;-60
2022/04/26 11:58:34;;;;;;;15.85;14.20;;;9.40;99.90;;;;;;5023517;28;20091;-59
2022/04/26 12:01:08;;;;;;;16.13;13.85;;;9.40;99.90;;;;;;5038747;28;20403;-60
2022/04/26 12:03:33;;;;;;;16.10;13.77;;;9.40;99.90;;;;;;5037523;28;20031;-60
2022/04/26 12:06:02;;;;;;;15.70;13.32;;;9.60;99.90;;;;;;5041593;28;20017;-60
2022/04/26 12:08:31;;;;;;;15.15;13.65;;;9.60;99.90;;;;;;5039601;28;20113;-60
2022/04/26 12:11:18;;;;;;;13.82;12.07;;;9.80;99.90;;;;;;5038066;28;20518;-60
2022/04/26 12:13:44;;;;;;;13.70;12.27;;;9.80;99.90;;;;;;5040621;28;20039;-60
2022/04/26 12:16:30;;;;;;;15.65;11.95;;;9.70;99.90;;;;;;5041251;28;20064;-60
2022/04/26 12:19:00;;;;;;;13.02;11.73;;;9.70;99.90;;;;;;5039566;28;20043;-60
2022/04/26 12:21:27;;;;;;;12.68;11.00;;;9.70;99.90;;;;;;5038490;28;20025;-59
2022/04/26 12:24:15;;;;;;;11.63;10.60;;;9.70;99.90;;;;;;5035557;28;20041;-60
2022/04/26 12:26:59;;;;;;;20.10;11.93;;;9.40;99.90;;;;;;5038162;28;20025;-60
2022/04/26 12:29:48;;;;;;;11.65;10.50;;;9.30;99.90;;;;;;5038341;28;20110;-60
2022/04/26 12:32:16;;;;;;;11.70;10.70;;;9.20;99.90;;;;;;5039992;28;20479;-60
2022/04/26 12:34:52;;;;;;;12.43;11.43;;;9.10;99.90;;;;;;5040637;28;20071;-61
2022/04/26 12:37:21;;;;;;;10.70;9.60;;;9.00;99.90;;;;;;5039293;28;20427;-62
2022/04/26 12:39:52;;;;;;;12.40;11.30;;;8.90;99.90;;;;;;5039595;28;20040;-60
2022/04/26 12:42:27;;;;;;;12.23;11.10;;;8.90;99.90;;;;;;5036407;28;20412;-60
2022/04/26 12:45:00;;;;;;;12.43;11.32;;;8.90;99.90;;;;;;5041580;28;20492;-61
2022/04/26 12:50:29;;;;;;;13.40;12.10;;;8.90;99.90;;;;;;5037797;28;20057;-60
2022/04/26 12:52:55;;;;;;;17.58;12.75;;;8.90;99.90;;;;;;5040360;28;20046;-60
2022/04/26 12:55:41;;;;;;;13.25;11.70;;;9.00;99.90;;;;;;5042634;28;20109;-60
2022/04/26 12:58:11;;;;;;;11.05;10.07;;;9.10;99.90;;;;;;5037343;28;20092;-60
2022/04/26 13:00:40;;;;;;;12.37;11.03;;;9.20;99.90;;;;;;5042172;28;20021;-60
2022/04/26 13:03:07;;;;;;;12.90;11.70;;;9.20;99.90;;;;;;5036354;28;20279;-60
2022/04/26 13:05:54;;;;;;;13.52;11.75;;;9.30;99.90;;;;;;5038348;28;20048;-61
2022/04/26 13:08:20;;;;;;;12.35;11.25;;;9.30;99.90;;;;;;5039260;28;20026;-60
2022/04/26 13:10:47;;;;;;;12.35;11.18;;;9.30;99.90;;;;;;5042568;28;20027;-61
2022/04/26 13:13:14;;;;;;;13.07;11.77;;;9.30;99.90;;;;;;5048928;28;20017;-60
2022/04/26 13:15:44;;;;;;;14.52;11.45;;;9.30;99.90;;;;;;5027237;28;20025;-60
2022/04/26 13:18:12;;;;;;;12.68;11.57;;;9.40;99.90;;;;;;5040416;28;20376;-60
2022/04/26 13:20:38;;;;;;;14.98;13.05;;;9.40;99.90;;;;;;5042115;28;20029;-60
2022/04/26 13:23:04;;;;;;;14.82;13.27;;;9.40;99.90;;;;;;5043348;28;20040;-60
2022/04/26 13:25:30;;;;;;;14.20;10.73;;;9.50;99.90;;;;;;5042675;28;20025;-61
2022/04/26 13:27:56;;;;;;;13.38;12.13;;;9.70;99.90;;;;;;5034241;28;20389;-60
2022/04/26 13:30:22;;;;;;;13.30;12.13;;;9.80;99.90;;;;;;5039328;28;20091;-60
2022/04/26 13:32:47;;;;;;;11.27;10.27;;;9.80;99.90;;;;;;5044931;28;20088;-61
2022/04/26 13:35:13;;;;;;;12.30;11.10;;;9.80;99.90;;;;;;5041045;28;20714;-60
2022/04/26 13:37:39;;;;;;;12.82;11.55;;;9.80;99.90;;;;;;5044516;28;20045;-60
2022/04/26 13:40:06;;;;;;;12.45;11.07;;;9.80;99.90;;;;;;5043565;28;20376;-60
2022/04/26 13:42:31;;;;;;;12.98;11.68;;;9.80;99.90;;;;;;5038917;28;20026;-61
2022/04/26 13:44:58;;;;;;;13.82;12.52;;;9.90;99.90;;;;;;5042725;28;20396;-59
2022/04/26 13:47:25;;;;;;;14.10;12.75;;;9.70;99.90;;;;;;5045491;28;20036;-59
2022/04/26 13:49:54;;;;;;;17.00;15.50;;;9.80;99.90;;;;;;5047430;28;20025;-59
2022/04/26 13:52:20;;;;;;;16.15;14.63;;;9.80;99.90;;;;;;5042392;28;20024;-59
2022/04/26 13:54:47;;;;;;;15.52;14.13;;;9.90;99.90;;;;;;5045097;28;20040;-59
2022/04/26 13:57:13;;;;;;;15.10;13.73;;;9.90;99.90;;;;;;5043142;28;20488;-59
2022/04/26 13:59:39;;;;;;;13.48;12.27;;;9.90;99.90;;;;;;5042494;28;20040;-59
2022/04/26 14:02:06;;;;;;;13.27;11.32;;;10.00;99.90;;;;;;5047433;28;20033;-59
2022/04/26 14:04:32;;;;;;;10.95;9.85;;;9.90;99.90;;;;;;5044483;28;20108;-60
2022/04/26 14:06:58;;;;;;;8.90;8.15;;;9.90;99.90;;;;;;5026314;28;20033;-60
2022/04/26 14:09:24;;;;;;;9.05;8.23;;;9.90;99.90;;;;;;5040873;28;20489;-60
2022/04/26 14:11:55;;;;;;;10.88;9.85;;;9.90;99.90;;;;;;5042108;28;20029;-59
2022/04/26 14:22:34;;;;;;;9.48;8.57;;;9.40;99.90;;;;;;5044847;28;20031;-59
2022/04/26 14:25:08;;;;;;;7.82;7.13;;;9.30;99.90;;;;;;5039245;28;20037;-59
2022/04/26 14:27:39;;;;;;;8.73;7.65;;;9.20;99.90;;;;;;5039930;28;20038;-59
2022/04/26 14:30:06;;;;;;;9.38;8.48;;;9.10;99.90;;;;;;5034593;28;20038;-59
2022/04/26 14:32:32;;;;;;;8.82;7.95;;;9.10;99.90;;;;;;5040691;28;20120;-59
2022/04/26 14:34:58;;;;;;;8.63;7.93;;;9.00;99.90;;;;;;5028708;28;20116;-59
2022/04/26 14:37:23;;;;;;;10.80;8.98;;;9.00;99.90;;;;;;5042696;28;20056;-59
2022/04/26 14:39:50;;;;;;;9.57;8.60;;;9.00;99.90;;;;;;5044633;28;20033;-59
2022/04/26 14:42:15;;;;;;;9.95;8.95;;;9.00;99.90;;;;;;5044469;28;20396;-59
2022/04/26 14:44:41;;;;;;;9.95;9.00;;;9.00;99.90;;;;;;5040710;28;20042;-59
2022/04/26 14:47:07;;;;;;;10.82;9.38;;;9.00;99.90;;;;;;5037070;28;20071;-60
2022/04/26 14:49:34;;;;;;;10.73;9.70;;;9.00;99.90;;;;;;5041142;28;20531;-60
2022/04/26 14:52:00;;;;;;;10.38;9.38;;;9.00;99.90;;;;;;5039780;28;20029;-59
2022/04/26 14:54:25;;;;;;;9.68;8.68;;;9.00;99.90;;;;;;5040446;28;20436;-59
2022/04/26 14:56:51;;;;;;;8.45;7.75;;;9.10;99.90;;;;;;5041738;28;20025;-59
2022/04/26 14:59:18;;;;;;;9.70;8.80;;;9.10;99.90;;;;;;5043480;28;20037;-59
2022/04/26 15:01:50;;;;;;;11.48;9.05;;;9.00;99.90;;;;;;5041408;28;20519;-59
2022/04/26 15:04:17;;;;;;;10.45;9.45;;;9.00;99.90;;;;;;5039030;28;20468;-60
2022/04/26 15:06:43;;;;;;;11.77;10.68;;;9.00;99.90;;;;;;5036112;28;20041;-60
2022/04/26 15:17:23;;;;;;;10.48;8.07;;;9.10;99.90;;;;;;5040448;28;20116;-60
2022/04/26 15:19:50;;;;;;;9.55;8.65;;;9.00;99.90;;;;;;5045065;28;20120;-60
2022/04/26 15:22:18;;;;;;;9.30;8.35;;;9.00;99.90;;;;;;5022222;28;20029;-59
2022/04/26 15:24:45;;;;;;;8.93;8.13;;;9.00;99.90;;;;;;5038638;28;20049;-60
2022/04/26 15:27:11;;;;;;;8.00;7.30;;;9.00;99.90;;;;;;5040437;28;20385;-59
2022/04/26 15:29:37;;;;;;;8.00;6.97;;;9.00;99.90;;;;;;5022609;28;20025;-59
2022/04/26 15:32:03;;;;;;;7.50;6.80;;;8.90;99.90;;;;;;5042230;28;20593;-59
2022/04/26 15:34:28;;;;;;;7.78;7.18;;;8.80;99.90;;;;;;5040449;28;20514;-59
2022/04/26 15:36:54;;;;;;;6.90;6.30;;;8.80;99.90;;;;;;5032729;28;20037;-59
2022/04/26 15:39:19;;;;;;;7.60;6.93;;;8.70;99.90;;;;;;5040300;28;20033;-59
2022/04/26 15:41:45;;;;;;;7.13;6.43;;;8.70;99.90;;;;;;5029746;28;20056;-61
2022/04/26 15:44:12;;;;;;;9.05;8.15;;;8.60;99.90;;;;;;5039728;28;20042;-59
2022/04/26 15:46:38;;;;;;;9.13;8.32;;;8.60;99.90;;;;;;5036286;28;20022;-60
2022/04/26 15:49:03;;;;;;;8.30;7.03;;;8.60;99.90;;;;;;5044694;28;20098;-59
2022/04/26 15:51:29;;;;;;;7.68;6.90;;;8.60;99.90;;;;;;5043123;28;20040;-59
2022/04/26 15:53:55;;;;;;;7.00;6.40;;;8.60;99.90;;;;;;5039587;28;20056;-59
2022/04/26 15:56:20;;;;;;;6.18;5.70;;;8.60;99.90;;;;;;5038619;28;20438;-60
2022/04/26 15:58:46;;;;;;;6.65;6.05;;;8.50;99.90;;;;;;5025821;28;20060;-60
2022/04/26 16:01:12;;;;;;;5.88;5.38;;;8.50;99.90;;;;;;5041834;28;20048;-59
2022/04/26 16:03:38;;;;;;;7.88;7.18;;;8.50;99.90;;;;;;4961285;28;20080;-59
2022/04/26 16:06:04;;;;;;;7.30;6.70;;;8.50;99.90;;;;;;4984293;28;20122;-60
2022/04/26 16:08:35;;;;;;;7.20;6.60;;;8.50;99.90;;;;;;5042436;28;20488;-60
2022/04/26 16:22:00;;;;;;;8.05;7.20;;;8.70;99.90;;;;;;5036763;28;20036;-59
2022/04/26 16:24:26;;;;;;;7.20;5.97;;;8.70;99.90;;;;;;5041694;28;20029;-61
2022/04/26 16:26:51;;;;;;;8.40;7.60;;;8.70;99.90;;;;;;5043627;28;20071;-60
2022/04/26 16:29:18;;;;;;;9.23;6.72;;;8.70;99.90;;;;;;5045159;28;20392;-60
2022/04/26 16:31:44;;;;;;;6.78;6.18;;;8.70;99.90;;;;;;5026796;28;20044;-59
2022/04/26 16:34:09;;;;;;;6.57;5.97;;;8.70;99.90;;;;;;5042490;28;20472;-59
2022/04/26 16:36:36;;;;;;;6.97;6.32;;;8.60;99.90;;;;;;5026447;28;20044;-59
2022/04/26 16:39:02;;;;;;;8.02;7.07;;;8.60;99.90;;;;;;5039889;28;20037;-60
2022/04/26 16:41:28;;;;;;;10.07;7.30;;;8.60;99.90;;;;;;5039315;28;20035;-59
2022/04/26 16:43:54;;;;;;;10.07;8.07;;;8.60;99.90;;;;;;5040077;28;20037;-60
2022/04/26 16:46:22;;;;;;;10.65;8.23;;;8.60;99.90;;;;;;5038918;28;20033;-60
2022/04/26 16:48:48;;;;;;;9.50;8.55;;;8.60;99.90;;;;;;5037384;28;20042;-60
2022/04/26 16:51:17;;;;;;;8.57;7.78;;;8.60;99.90;;;;;;5038699;28;20042;-60
2022/04/26 16:53:44;;;;;;;13.27;9.20;;;8.70;99.90;;;;;;5036636;28;20515;-60
2022/04/26 16:56:10;;;;;;;9.35;8.45;;;8.60;99.90;;;;;;5039613;28;20051;-61
2022/04/26 16:58:35;;;;;;;9.05;8.23;;;8.60;99.90;;;;;;5038767;28;20033;-60
2022/04/26 17:01:01;;;;;;;8.73;8.02;;;8.60;99.90;;;;;;5038815;28;20233;-60
2022/04/26 17:03:27;;;;;;;8.32;7.60;;;8.60;99.90;;;;;;5038810;28;20108;-61
2022/04/26 17:05:53;;;;;;;9.57;7.93;;;8.60;99.90;;;;;;5040808;28;20026;-61
2022/04/26 17:08:20;;;;;;;9.18;8.27;;;8.60;99.90;;;;;;5038704;28;20029;-60